Time;durP1;ratioP1;P1;durP2;ratioP2;P2;SDS_P1;SDS_P2;PMS_P1;PMS_P2;Temp;Humidity;BMP_temperature;BMP_pressure;BME280_temperature;BME280_humidity;BME280_pressure;Samples;Min_cycle;Max_cycle;Signal;HPM_P1;HPM_P2
2021/04/04 00:01:57;;;;;;;18.52;5.15;;;;;;;6.01;91.76;102903.91;6126032;23;20005;-80
2021/04/04 00:04:22;;;;;;;25.25;6.00;;;;;;;6.10;90.79;102904.00;6147777;23;20025;-80
2021/04/04 00:06:48;;;;;;;29.38;5.38;;;;;;;6.07;89.74;102895.22;6152373;23;20088;-80
2021/04/04 00:09:15;;;;;;;23.85;5.20;;;;;;;6.00;90.78;102890.78;6151411;23;20006;-80
2021/04/04 00:11:41;;;;;;;29.25;6.60;;;;;;;5.99;91.02;102896.91;6126969;23;20484;-80
2021/04/04 00:14:06;;;;;;;19.05;4.55;;;;;;;5.95;93.11;102894.25;6153110;23;20008;-80
2021/04/04 00:16:32;;;;;;;29.50;5.15;;;;;;;6.00;92.81;102893.41;6153837;23;20483;-80
2021/04/04 00:18:57;;;;;;;15.93;3.55;;;;;;;6.01;90.73;102893.41;6127557;23;20009;-81
2021/04/04 00:21:23;;;;;;;15.88;3.85;;;;;;;6.08;90.44;102895.25;6152966;23;20331;-80
2021/04/04 00:23:48;;;;;;;16.60;4.32;;;;;;;6.06;87.10;102899.59;6153484;23;20005;-81
2021/04/04 00:26:13;;;;;;;17.17;4.05;;;;;;;5.93;88.10;102890.75;6155591;23;20005;-82
2021/04/04 00:28:38;;;;;;;17.30;3.40;;;;;;;5.86;87.10;102885.41;6131593;23;20001;-82
2021/04/04 00:31:04;;;;;;;12.70;3.58;;;;;;;5.83;87.83;102885.41;6156668;23;20037;-81
2021/04/04 00:33:29;;;;;;;21.92;5.28;;;;;;;5.90;87.70;102881.94;6129855;23;20013;-82
2021/04/04 00:35:54;;;;;;;18.20;3.35;;;;;;;5.97;87.93;102887.28;6155511;23;20033;-81
2021/04/04 00:38:20;;;;;;;20.42;4.40;;;;;;;5.91;87.37;102887.22;6126984;23;20835;-80
2021/04/04 00:40:45;;;;;;;17.90;2.97;;;;;;;5.93;87.29;102876.75;6153984;23;20009;-81
2021/04/04 00:43:11;;;;;;;20.65;4.15;;;;;;;5.97;86.79;102882.03;6126981;23;20066;-81
2021/04/04 00:45:38;;;;;;;20.02;3.40;;;;;;;5.99;86.90;102895.16;6153433;23;20009;-80
2021/04/04 00:48:06;;;;;;;22.35;3.88;;;;;;;5.99;86.54;102894.28;6125533;23;20006;-80
2021/04/04 00:50:34;;;;;;;15.13;3.67;;;;;;;5.93;86.77;102905.63;6151871;23;20013;-80
2021/04/04 00:53:00;;;;;;;19.17;3.90;;;;;;;5.84;88.24;102902.91;6153396;23;20479;-80
2021/04/04 00:55:26;;;;;;;22.55;4.38;;;;;;;5.81;88.67;102893.22;6127695;23;20593;-80
2021/04/04 00:57:53;;;;;;;23.88;4.82;;;;;;;5.83;88.26;102894.16;6155445;23;20001;-81
2021/04/04 01:00:21;;;;;;;18.38;3.22;;;;;;;5.80;87.75;102880.13;6156048;23;20080;-80
2021/04/04 01:02:49;;;;;;;19.17;3.42;;;;;;;5.80;87.17;102885.34;6128106;23;20001;-81
2021/04/04 01:05:16;;;;;;;15.18;3.42;;;;;;;5.82;87.54;102886.25;6154546;23;20085;-81
2021/04/04 01:07:44;;;;;;;24.83;3.38;;;;;;;5.80;87.15;102887.97;6161019;23;20008;-82
2021/04/04 01:10:11;;;;;;;12.35;3.47;;;;;;;5.70;87.83;102885.28;6143285;23;20015;-81
2021/04/04 01:12:50;;;;;;;18.73;4.50;;;;;;;5.79;87.35;102879.25;6136081;23;20009;-81
2021/04/04 01:15:31;;;;;;;22.80;3.35;;;;;;;5.67;87.50;102877.41;6166921;23;20013;-82
2021/04/04 01:18:03;;;;;;;14.50;3.05;;;;;;;5.65;87.44;102875.63;6155993;23;20026;-81
2021/04/04 01:20:33;;;;;;;17.05;3.17;;;;;;;5.69;86.86;102880.91;6153216;23;20622;-81
2021/04/04 01:22:58;;;;;;;18.92;3.35;;;;;;;5.68;86.72;102880.91;6126046;23;20005;-81
2021/04/04 01:25:29;;;;;;;16.33;3.70;;;;;;;5.68;87.18;102873.03;6153420;23;20005;-81
2021/04/04 01:28:00;;;;;;;18.23;3.22;;;;;;;5.72;87.12;102869.53;6152504;23;20009;-81
2021/04/04 01:30:30;;;;;;;15.65;3.47;;;;;;;5.65;87.36;102871.25;6152690;23;20013;-80
2021/04/04 01:32:57;;;;;;;11.30;2.75;;;;;;;5.76;87.56;102867.81;6153767;23;20064;-81
2021/04/04 01:35:26;;;;;;;21.20;4.10;;;;;;;5.72;87.34;102874.78;6154545;23;20059;-81
2021/04/04 01:37:54;;;;;;;18.45;3.55;;;;;;;5.68;87.51;102870.41;6155668;23;20059;-82
2021/04/04 01:40:23;;;;;;;21.92;4.35;;;;;;;5.72;89.14;102864.28;6155192;23;20005;-81
2021/04/04 01:42:50;;;;;;;20.58;4.43;;;;;;;5.75;87.96;102850.34;6128980;23;20368;-82
2021/04/04 01:45:16;;;;;;;15.77;3.65;;;;;;;5.85;88.57;102863.53;6128085;23;20009;-81
2021/04/04 01:47:43;;;;;;;14.00;3.55;;;;;;;5.82;88.70;102860.88;6152953;23;20006;-81
2021/04/04 01:50:10;;;;;;;17.27;4.65;;;;;;;5.82;89.70;102855.63;6152389;23;20278;-81
2021/04/04 01:52:37;;;;;;;17.77;4.30;;;;;;;5.78;89.68;102858.25;6153075;23;20012;-80
2021/04/04 01:55:04;;;;;;;16.80;4.40;;;;;;;5.75;88.47;102843.34;6125901;23;20009;-81
2021/04/04 01:57:31;;;;;;;16.70;4.38;;;;;;;5.74;89.40;102840.72;6125956;23;20013;-80
2021/04/04 01:59:57;;;;;;;21.48;4.10;;;;;;;5.75;89.31;102850.34;6151529;23;20084;-80
2021/04/04 02:02:23;;;;;;;13.90;4.60;;;;;;;5.71;89.78;102842.44;6151544;23;20710;-80
2021/04/04 02:04:50;;;;;;;14.70;3.80;;;;;;;5.69;92.11;102843.31;6126073;23;20009;-80
2021/04/04 02:07:16;;;;;;;22.10;4.57;;;;;;;5.72;92.71;102835.44;6125847;23;20005;-80
2021/04/04 02:09:42;;;;;;;14.27;4.38;;;;;;;5.73;93.51;102834.59;6151833;23;20060;-80
2021/04/04 02:12:08;;;;;;;15.07;4.13;;;;;;;5.72;95.21;102836.34;6125689;23;20080;-80
2021/04/04 02:14:35;;;;;;;14.55;4.25;;;;;;;5.72;93.66;102833.72;6152183;23;20033;-80
2021/04/04 02:17:01;;;;;;;18.35;4.72;;;;;;;5.65;94.07;102834.50;6153222;23;20060;-80
2021/04/04 02:19:29;;;;;;;22.50;5.80;;;;;;;5.70;94.37;102829.31;6152840;23;20076;-81
2021/04/04 02:21:56;;;;;;;17.55;4.63;;;;;;;5.80;94.45;102822.38;6152845;23;19997;-81
2021/04/04 02:24:24;;;;;;;17.92;5.63;;;;;;;5.78;93.95;102825.00;6159970;23;20024;-82
2021/04/04 02:26:51;;;;;;;12.38;5.25;;;;;;;5.77;93.83;102828.47;6141594;23;20009;-81
2021/04/04 02:29:16;;;;;;;21.20;5.50;;;;;;;5.80;94.14;102817.13;6162900;23;20013;-81
2021/04/04 02:31:48;;;;;;;15.63;4.68;;;;;;;5.82;94.33;102823.25;6139301;23;20032;-81
2021/04/04 02:34:21;;;;;;;21.85;4.53;;;;;;;5.70;94.91;102817.06;6133762;23;20013;-82
2021/04/04 02:36:47;;;;;;;19.00;4.93;;;;;;;5.70;96.48;102813.56;6153828;23;20028;-81
2021/04/04 02:39:23;;;;;;;18.45;4.72;;;;;;;5.77;95.64;102814.47;6152647;23;20043;-81
2021/04/04 02:41:49;;;;;;;17.20;4.93;;;;;;;5.78;94.91;102816.25;6152523;23;20076;-81
2021/04/04 02:44:15;;;;;;;19.70;5.72;;;;;;;5.78;95.28;102813.63;6152486;23;20040;-81
2021/04/04 02:46:48;;;;;;;18.63;5.03;;;;;;;5.69;96.28;102820.56;6158390;23;20436;-82
2021/04/04 02:49:15;;;;;;;19.35;4.75;;;;;;;5.80;96.06;102811.88;6159693;23;20068;-81
2021/04/04 02:51:47;;;;;;;21.73;4.03;;;;;;;5.78;96.85;102801.38;6158568;23;20010;-82
2021/04/04 02:54:20;;;;;;;10.43;4.22;;;;;;;5.85;98.02;102812.78;6155113;23;20094;-81
2021/04/04 02:56:48;;;;;;;18.25;4.30;;;;;;;5.72;98.55;102803.94;6157354;23;20009;-80
2021/04/04 02:59:36;;;;;;;18.10;5.07;;;;;;;5.79;97.93;102803.13;6157249;23;20012;-81
2021/04/04 03:02:05;;;;;;;17.40;4.70;;;;;;;5.78;97.07;102800.50;6134011;23;20005;-81
2021/04/04 03:04:34;;;;;;;16.05;5.20;;;;;;;5.80;97.73;102810.13;6137510;23;20001;-81
2021/04/04 03:07:01;;;;;;;21.65;6.05;;;;;;;5.78;98.26;102798.75;6158236;23;20619;-81
2021/04/04 03:09:29;;;;;;;19.25;5.55;;;;;;;5.82;99.23;102805.75;6158489;23;20089;-81
2021/04/04 03:11:55;;;;;;;22.95;6.22;;;;;;;5.80;99.72;102802.25;6159617;23;20006;-81
2021/04/04 03:14:23;;;;;;;14.57;5.22;;;;;;;5.73;100.00;102808.34;6157902;23;20549;-80
2021/04/04 03:16:48;;;;;;;17.88;4.35;;;;;;;5.66;100.00;102802.16;6156605;23;20084;-80
2021/04/04 03:19:15;;;;;;;16.80;5.00;;;;;;;5.77;100.00;102798.72;6129810;23;20392;-80
2021/04/04 03:21:43;;;;;;;18.67;4.18;;;;;;;5.64;100.00;102793.41;6155607;23;20001;-80
2021/04/04 03:24:09;;;;;;;20.00;4.03;;;;;;;5.67;100.00;102790.81;6156319;23;20012;-81
2021/04/04 03:26:36;;;;;;;17.85;4.88;;;;;;;5.75;100.00;102784.75;6128394;23;20006;-80
2021/04/04 03:29:02;;;;;;;14.68;4.40;;;;;;;5.59;99.26;102784.63;6154809;23;20297;-81
2021/04/04 03:31:28;;;;;;;8.85;4.47;;;;;;;5.65;99.78;102776.81;6155574;23;20028;-80
2021/04/04 03:33:53;;;;;;;12.05;4.85;;;;;;;5.74;100.00;102786.50;6130064;23;20009;-81
2021/04/04 03:36:21;;;;;;;20.17;4.88;;;;;;;5.64;100.00;102793.41;6159679;23;20036;-81
2021/04/04 03:38:50;;;;;;;11.80;4.72;;;;;;;5.75;100.00;102788.25;6158142;23;20005;-80
2021/04/04 03:41:16;;;;;;;15.35;6.00;;;;;;;5.80;98.92;102794.41;6156000;23;20013;-81
2021/04/04 03:43:47;;;;;;;14.27;4.60;;;;;;;5.74;98.61;102788.25;6155942;23;20005;-80
2021/04/04 03:46:14;;;;;;;15.70;4.65;;;;;;;5.71;98.89;102786.47;6137188;23;20057;-79
2021/04/04 03:48:44;;;;;;;21.73;5.07;;;;;;;5.70;98.70;102792.56;6166895;23;20009;-82
2021/04/04 03:51:10;;;;;;;15.07;4.45;;;;;;;5.76;99.54;102786.50;6166050;23;20005;-81
2021/04/04 03:53:38;;;;;;;20.40;5.55;;;;;;;5.74;99.90;102783.88;6167115;23;20001;-81
2021/04/04 03:56:05;;;;;;;20.08;6.55;;;;;;;5.71;99.54;102783.84;6133486;23;20025;-81
2021/04/04 03:58:36;;;;;;;18.50;4.90;;;;;;;5.77;99.80;102786.50;6157704;23;20002;-80
2021/04/04 04:01:05;;;;;;;18.95;4.05;;;;;;;5.76;100.00;102776.00;6155064;23;20029;-80
2021/04/04 04:03:33;;;;;;;17.80;4.75;;;;;;;5.65;98.63;102782.06;6128985;23;20009;-80
2021/04/04 04:05:59;;;;;;;12.73;4.97;;;;;;;5.62;99.62;102771.56;6155074;23;20005;-80
2021/04/04 04:08:26;;;;;;;20.85;7.45;;;;;;;5.72;99.47;102777.72;6155444;23;20013;-81
2021/04/04 04:10:53;;;;;;;16.35;4.97;;;;;;;5.65;100.00;102771.56;6156310;23;20088;-82
2021/04/04 04:13:19;;;;;;;18.08;5.22;;;;;;;5.66;100.00;102775.06;6130275;23;20681;-81
2021/04/04 04:15:44;;;;;;;22.95;6.72;;;;;;;5.67;100.00;102776.81;6155972;23;20001;-81
2021/04/04 04:18:11;;;;;;;18.50;4.97;;;;;;;5.65;100.00;102773.31;6155092;23;20124;-81
2021/04/04 04:20:39;;;;;;;17.27;4.57;;;;;;;5.74;100.00;102776.00;6155390;23;20048;-81
2021/04/04 04:23:06;;;;;;;23.58;4.63;;;;;;;5.68;100.00;102774.22;6156001;23;20065;-81
2021/04/04 04:25:33;;;;;;;20.90;4.30;;;;;;;5.81;100.00;102775.16;6156502;23;20009;-80
2021/04/04 04:27:59;;;;;;;17.42;4.15;;;;;;;5.60;100.00;102782.88;6136785;23;20028;-80
2021/04/04 04:30:25;;;;;;;15.23;4.47;;;;;;;5.60;100.00;102775.03;6142023;23;20033;-79
2021/04/04 04:32:54;;;;;;;17.10;5.20;;;;;;;5.51;100.00;102783.69;6165201;23;20010;-81
2021/04/04 04:35:21;;;;;;;22.65;5.60;;;;;;;5.55;100.00;102776.72;6133056;23;20009;-79
2021/04/04 04:37:47;;;;;;;17.60;5.45;;;;;;;5.57;100.00;102775.88;6153258;23;20006;-80
2021/04/04 04:40:13;;;;;;;16.13;4.43;;;;;;;5.49;100.00;102774.06;6152635;23;20436;-80
2021/04/04 04:42:45;;;;;;;18.55;4.50;;;;;;;5.49;100.00;102774.94;6153450;23;20377;-80
2021/04/04 04:45:25;;;;;;;16.25;4.65;;;;;;;5.53;100.00;102765.38;6155009;23;20113;-81
2021/04/04 04:47:52;;;;;;;15.23;4.05;;;;;;;5.58;100.00;102771.53;6157873;23;20009;-81
2021/04/04 04:50:18;;;;;;;14.95;4.97;;;;;;;5.48;100.00;102767.06;6154670;23;20097;-81
2021/04/04 04:52:44;;;;;;;21.08;6.32;;;;;;;5.53;100.00;102766.25;6154817;23;20005;-81
2021/04/04 04:55:11;;;;;;;18.85;4.90;;;;;;;5.61;100.00;102766.28;6127778;23;20416;-81
2021/04/04 04:57:39;;;;;;;13.73;5.15;;;;;;;5.55;100.00;102755.75;6154254;23;20002;-80
2021/04/04 05:00:08;;;;;;;15.60;5.15;;;;;;;5.48;100.00;102764.44;6128031;23;20052;-81
2021/04/04 05:02:35;;;;;;;25.85;6.97;;;;;;;5.48;100.00;102764.44;6154370;23;20002;-81
2021/04/04 05:05:02;;;;;;;26.63;6.82;;;;;;;5.47;100.00;102755.69;6154308;23;20317;-81
2021/04/04 05:07:31;;;;;;;14.73;4.90;;;;;;;5.60;100.00;102747.03;6160699;23;20006;-82
2021/04/04 05:09:57;;;;;;;16.45;6.53;;;;;;;5.61;100.00;102753.16;6129281;23;20001;-81
2021/04/04 05:12:24;;;;;;;28.05;8.45;;;;;;;5.55;100.00;102755.75;6157468;23;20012;-81
2021/04/04 05:14:49;;;;;;;21.98;6.82;;;;;;;5.48;100.00;102757.47;6159734;23;20012;-80
2021/04/04 05:17:15;;;;;;;19.08;6.15;;;;;;;5.45;100.00;102763.53;6153579;23;20025;-81
2021/04/04 05:19:41;;;;;;;17.02;5.15;;;;;;;5.45;100.00;102770.53;6154691;23;20014;-81
2021/04/04 05:22:08;;;;;;;21.23;5.85;;;;;;;5.48;100.00;102761.84;6128734;23;20009;-81
2021/04/04 05:24:34;;;;;;;15.82;4.63;;;;;;;5.32;100.00;102756.47;6154531;23;20084;-80
2021/04/04 05:27:00;;;;;;;16.58;4.43;;;;;;;5.27;100.00;102759.91;6156230;23;20405;-80
2021/04/04 05:29:25;;;;;;;23.25;5.60;;;;;;;5.36;100.00;102759.97;6155677;23;20175;-80
2021/04/04 05:31:56;;;;;;;18.58;5.40;;;;;;;5.38;100.00;102760.88;6128971;23;20090;-81
2021/04/04 05:34:27;;;;;;;14.20;5.03;;;;;;;5.36;100.00;102755.59;6130152;23;20019;-81
2021/04/04 05:36:55;;;;;;;20.05;4.25;;;;;;;5.47;100.00;102760.91;6153081;23;20107;-80
2021/04/04 05:39:23;;;;;;;12.32;5.47;;;;;;;5.51;100.00;102753.97;6127175;23;20542;-80
2021/04/04 05:41:54;;;;;;;18.63;4.75;;;;;;;5.51;100.00;102751.34;6152934;23;19998;-79
2021/04/04 05:44:45;;;;;;;11.18;4.63;;;;;;;5.51;100.00;102753.97;6153723;23;20345;-80
2021/04/04 05:47:33;;;;;;;15.27;4.10;;;;;;;5.44;100.00;102761.78;6153296;23;20428;-80
2021/04/04 05:50:20;;;;;;;16.08;4.47;;;;;;;5.52;100.00;102756.59;6126564;23;20020;-80
2021/04/04 05:52:54;;;;;;;28.52;4.90;;;;;;;5.49;100.00;102747.84;6154020;23;20724;-80
2021/04/04 05:55:47;;;;;;;16.95;6.15;;;;;;;5.55;100.00;102755.75;6157148;23;20336;-80
2021/04/04 05:58:17;;;;;;;14.27;5.35;;;;;;;5.61;100.00;102766.28;6131757;23;20012;-80
2021/04/04 06:00:45;;;;;;;20.25;5.68;;;;;;;5.60;100.00;102754.91;6155010;23;20024;-81
2021/04/04 06:04:01;;;;;;;19.48;5.35;;;;;;;5.60;100.00;102751.41;6129354;23;20009;-80
2021/04/04 06:06:29;;;;;;;31.48;6.40;;;;;;;5.55;100.00;102759.25;6153319;23;20495;-79
2021/04/04 06:09:07;;;;;;;17.42;5.85;;;;;;;5.58;100.00;102754.03;6126726;23;20013;-80
2021/04/04 06:11:52;;;;;;;23.67;6.25;;;;;;;5.51;100.00;102749.59;6154177;23;20005;-80
2021/04/04 06:14:42;;;;;;;16.25;6.95;;;;;;;5.53;100.00;102755.75;6154984;23;20071;-81
2021/04/04 06:17:14;;;;;;;16.48;5.57;;;;;;;5.52;100.00;102753.09;6128624;23;20018;-81
2021/04/04 06:19:48;;;;;;;19.27;6.45;;;;;;;5.57;100.00;102759.25;6153618;23;20009;-82
2021/04/04 06:22:31;;;;;;;13.80;4.78;;;;;;;5.60;100.00;102759.28;6133733;23;20001;-80
2021/04/04 06:25:03;;;;;;;9.80;3.58;;;;;;;5.55;100.00;102761.88;6157035;23;20604;-81
2021/04/04 06:27:40;;;;;;;11.45;3.60;;;;;;;5.65;100.00;102757.56;6150576;23;20080;-80
2021/04/04 06:30:45;;;;;;;10.52;3.08;;;;;;;5.63;99.71;102754.06;6148334;23;20021;-80
2021/04/04 06:33:21;;;;;;;11.05;4.13;;;;;;;5.63;99.76;102751.44;6152369;23;20005;-81
2021/04/04 06:36:02;;;;;;;10.77;5.82;;;;;;;5.74;99.48;102751.50;6154274;23;20082;-81
2021/04/04 06:38:46;;;;;;;15.68;3.90;;;;;;;5.66;99.61;102754.06;6154817;23;20036;-81
2021/04/04 06:41:27;;;;;;;14.65;3.58;;;;;;;5.61;100.00;102751.41;6155549;23;20013;-81
2021/04/04 06:44:03;;;;;;;16.17;4.22;;;;;;;5.76;100.00;102753.25;6160819;23;20016;-84
2021/04/04 06:46:49;;;;;;;14.23;4.10;;;;;;;5.71;100.00;102762.84;6159419;23;20021;-83
2021/04/04 06:49:44;;;;;;;18.40;4.43;;;;;;;5.75;100.00;102758.50;6159551;23;20544;-82
2021/04/04 06:52:28;;;;;;;9.95;4.15;;;;;;;5.83;100.00;102764.69;6132585;23;20006;-83
2021/04/04 06:55:40;;;;;;;12.75;3.00;;;;;;;5.79;100.00;102766.41;6132642;23;20013;-84
2021/04/04 06:58:39;;;;;;;18.88;3.88;;;;;;;5.75;100.00;102762.00;6047081;23;20063;-84
2021/04/04 07:01:26;;;;;;;12.75;3.90;;;;;;;5.96;100.00;102759.53;6079398;23;20007;-83
2021/04/04 07:04:46;;;;;;;20.88;4.47;;;;;;;5.89;100.00;102755.09;6078436;23;20029;-83
2021/04/04 07:07:38;;;;;;;14.93;4.05;;;;;;;5.84;100.00;102763.81;5955291;24;20016;-83
2021/04/04 07:10:10;;;;;;;18.58;3.50;;;;;;;5.93;100.00;102761.28;5932450;24;20031;-84
2021/04/04 07:12:56;;;;;;;15.32;3.40;;;;;;;5.78;100.00;102766.41;5956513;24;20040;-83
2021/04/04 07:15:40;;;;;;;;;;;;;;;5.81;100.00;102762.03;5929400;24;20037;-83
2021/04/04 07:18:27;;;;;;;10.82;2.70;;;;;;;5.88;100.00;102755.97;5955352;24;19950;-83
2021/04/04 07:21:09;;;;;;;12.60;5.00;;;;;;;5.84;100.00;102763.81;5954750;24;20351;-83
2021/04/04 07:23:59;;;;;;;5.93;1.40;;;;;;;5.73;100.00;102758.50;5932795;24;20008;-83
2021/04/04 07:27:00;;;;;;;9.90;1.83;;;;;;;5.70;100.00;102747.97;5933779;24;20014;-83
2021/04/04 07:29:46;;;;;;;11.90;2.53;;;;;;;5.57;100.00;102740.88;5931410;24;20103;-83
2021/04/04 07:32:22;;;;;;;7.72;2.42;;;;;;;5.78;100.00;102748.03;5977913;23;20579;-83
2021/04/04 07:35:21;;;;;;;6.53;1.75;;;;;;;5.84;100.00;102746.31;5987699;23;20003;-83
2021/04/04 07:37:53;;;;;;;6.07;1.60;;;;;;;5.69;100.00;102748.84;6010343;23;20024;-83
2021/04/04 07:40:34;;;;;;;12.98;1.98;;;;;;;5.64;100.00;102746.19;6043481;23;20036;-83
2021/04/04 07:43:06;;;;;;;4.45;1.50;;;;;;;5.70;100.00;102738.34;6155151;23;20006;-83
2021/04/04 07:45:39;;;;;;;4.00;1.30;;;;;;;5.67;100.00;102734.81;6131221;23;20327;-83
2021/04/04 07:48:10;;;;;;;2.80;1.02;;;;;;;5.82;100.00;102741.91;6131263;23;20041;-83
2021/04/04 07:50:42;;;;;;;6.50;1.38;;;;;;;5.75;100.00;102734.88;6157008;23;20001;-83
2021/04/04 07:53:53;;;;;;;4.35;2.05;;;;;;;6.01;100.00;102737.69;6132737;23;20009;-83
2021/04/04 07:56:42;;;;;;;2.80;1.17;;;;;;;6.27;100.00;102732.53;6043854;23;20058;-83
2021/04/04 07:59:31;;;;;;;4.03;1.40;;;;;;;6.36;100.00;102730.81;6067399;23;20062;-84
2021/04/04 08:02:08;;;;;;;3.25;1.38;;;;;;;6.38;100.00;102722.97;6067813;23;20007;-84
2021/04/04 08:04:44;;;;;;;3.10;0.90;;;;;;;6.33;100.00;102736.06;6067450;23;20007;-83
2021/04/04 08:07:18;;;;;;;6.05;1.13;;;;;;;6.24;100.00;102733.41;6070682;23;20011;-83
2021/04/04 08:09:51;;;;;;;3.25;0.88;;;;;;;6.40;100.00;102739.59;6048592;23;20089;-84
2021/04/04 08:12:33;;;;;;;6.05;1.52;;;;;;;6.18;100.00;102726.38;6074226;23;20010;-84
2021/04/04 08:15:06;;;;;;;5.18;1.27;;;;;;;6.35;100.00;102736.94;6050679;23;20011;-82
2021/04/04 08:17:35;;;;;;;12.25;2.75;;;;;;;6.02;100.00;102736.78;6067863;23;20789;-83
2021/04/04 08:20:08;;;;;;;15.95;2.80;;;;;;;5.95;100.00;102735.91;6067755;23;20014;-83
2021/04/04 08:22:38;;;;;;;5.68;1.30;;;;;;;6.14;100.00;102742.13;6044512;23;20016;-84
2021/04/04 08:25:11;;;;;;;8.35;2.03;;;;;;;6.22;100.00;102740.38;6068808;23;20011;-83
2021/04/04 08:27:40;;;;;;;11.50;1.52;;;;;;;6.46;100.00;102740.47;6114786;23;20431;-84
2021/04/04 08:30:28;;;;;;;10.57;2.00;;;;;;;6.40;100.00;102739.59;6132308;23;20009;-83
2021/04/04 08:33:00;;;;;;;4.50;1.48;;;;;;;6.30;100.00;102738.69;6157284;23;20012;-83
2021/04/04 08:35:32;;;;;;;2.17;0.82;;;;;;;6.42;100.00;102743.94;6160923;23;20005;-84
2021/04/04 08:38:08;;;;;;;3.80;1.50;;;;;;;6.71;100.00;102745.78;6134225;23;20394;-83
2021/04/04 08:40:38;;;;;;;5.45;1.52;;;;;;;6.65;100.00;102744.03;6134792;23;20001;-83
2021/04/04 08:43:03;;;;;;;3.45;1.20;;;;;;;6.59;100.00;102743.16;6135505;23;20056;-84
2021/04/04 08:45:40;;;;;;;28.85;2.63;;;;;;;6.57;100.00;102737.88;6164417;23;20005;-83
2021/04/04 08:48:06;;;;;;;25.50;2.40;;;;;;;6.39;100.00;102722.94;6162367;23;20459;-83
2021/04/04 08:50:35;;;;;;;9.98;2.95;;;;;;;6.29;100.00;102725.56;6136332;23;20005;-83
2021/04/04 08:53:26;;;;;;;6.82;1.35;;;;;;;6.38;100.00;102733.47;6120147;23;20381;-82
2021/04/04 08:55:52;;;;;;;6.38;1.23;;;;;;;6.45;100.00;102727.34;6137688;23;20001;-83
2021/04/04 08:58:23;;;;;;;7.45;1.52;;;;;;;6.45;100.00;102722.09;6163311;23;20008;-83
2021/04/04 09:00:56;;;;;;;12.43;2.35;;;;;;;6.67;100.00;102723.00;6161845;23;20005;-83
2021/04/04 09:03:24;;;;;;;7.60;1.35;;;;;;;6.83;100.00;102721.25;6138207;23;20002;-84
2021/04/04 09:06:00;;;;;;;7.78;1.88;;;;;;;6.74;99.95;102719.53;6136409;23;20001;-83
2021/04/04 09:08:25;;;;;;;12.15;2.53;;;;;;;6.62;100.00;102720.38;6136016;23;20024;-83
2021/04/04 09:10:51;;;;;;;5.13;1.75;;;;;;;6.46;98.65;102715.94;6163411;23;20005;-83
2021/04/04 09:13:18;;;;;;;7.45;1.60;;;;;;;6.66;98.56;102716.88;6164290;23;20005;-83
2021/04/04 09:15:48;;;;;;;8.75;1.52;;;;;;;6.55;96.60;102712.47;6135387;23;20036;-83
2021/04/04 09:18:15;;;;;;;7.20;2.00;;;;;;;6.83;95.44;102716.91;6135275;23;20012;-84
2021/04/04 09:20:43;;;;;;;6.90;2.67;;;;;;;6.93;93.56;102713.41;6130263;23;20009;-83
2021/04/04 09:23:10;;;;;;;6.18;2.50;;;;;;;7.28;90.77;102707.28;6161182;23;20026;-82
2021/04/04 09:25:48;;;;;;;11.40;2.47;;;;;;;7.30;88.73;102702.88;6161872;23;20064;-83
2021/04/04 09:28:15;;;;;;;7.28;2.83;;;;;;;7.36;88.64;102710.75;6160900;23;20002;-83
2021/04/04 09:30:44;;;;;;;10.90;2.22;;;;;;;7.61;87.05;102708.06;6160483;23;20432;-83
2021/04/04 09:33:25;;;;;;;8.63;2.53;;;;;;;7.40;85.74;102703.75;6161451;23;20005;-83
2021/04/04 09:35:55;;;;;;;6.30;2.22;;;;;;;7.58;86.77;102710.69;6134987;23;20065;-83
2021/04/04 09:38:28;;;;;;;6.47;2.45;;;;;;;7.75;84.34;102701.03;6133189;23;20005;-83
2021/04/04 09:40:55;;;;;;;10.88;2.33;;;;;;;7.45;85.32;102705.47;6134609;23;20045;-83
2021/04/04 09:43:21;;;;;;;9.10;2.20;;;;;;;7.55;85.52;102695.81;6167956;23;20012;-83
2021/04/04 09:45:46;;;;;;;6.90;2.00;;;;;;;7.68;84.08;102699.28;6162160;23;20009;-83
2021/04/04 09:48:20;;;;;;;11.02;2.30;;;;;;;7.39;86.01;102702.00;6158905;23;20324;-83
2021/04/04 09:50:47;;;;;;;8.25;2.08;;;;;;;7.75;85.20;102704.53;6135139;23;20013;-82
2021/04/04 09:53:13;;;;;;;7.30;1.80;;;;;;;7.83;83.75;102700.97;6162524;23;20085;-83
2021/04/04 09:55:45;;;;;;;5.60;2.10;;;;;;;7.75;82.60;102701.91;6142214;23;19998;-83
2021/04/04 09:58:11;;;;;;;10.68;3.28;;;;;;;7.99;80.83;102702.69;6163494;23;20005;-83
2021/04/04 10:00:40;;;;;;;5.07;2.30;;;;;;;8.03;80.53;102696.50;6136478;23;20008;-84
2021/04/04 10:03:32;;;;;;;9.02;1.85;;;;;;;7.56;83.35;102691.41;6166172;23;20442;-83
2021/04/04 10:06:13;;;;;;;11.55;1.90;;;;;;;7.09;84.03;102690.63;6161619;23;20021;-84
2021/04/04 10:08:52;;;;;;;7.93;2.30;;;;;;;7.16;84.89;102695.00;6165945;23;19997;-83
2021/04/04 10:11:20;;;;;;;11.48;2.17;;;;;;;7.24;86.87;102689.75;6165149;23;20406;-83
2021/04/04 10:13:46;;;;;;;4.65;1.83;;;;;;;7.38;86.10;102681.81;6132789;23;20037;-83
2021/04/04 10:16:19;;;;;;;9.55;2.42;;;;;;;7.19;87.48;102678.34;6140888;23;20022;-84
2021/04/04 10:19:16;;;;;;;6.43;2.25;;;;;;;6.88;87.17;102682.75;6149202;23;20020;-85
2021/04/04 10:21:55;;;;;;;8.55;2.38;;;;;;;7.35;86.32;102664.28;6146873;23;20037;-83
2021/04/04 10:24:23;;;;;;;8.90;2.20;;;;;;;7.36;86.03;102666.03;6170025;23;20013;-83
2021/04/04 10:27:24;;;;;;;9.07;2.90;;;;;;;7.60;85.31;102664.22;6135752;23;20403;-83
2021/04/04 10:30:02;;;;;;;7.00;2.03;;;;;;;7.50;85.83;102652.84;6163522;23;20005;-83
2021/04/04 10:32:28;;;;;;;9.98;2.53;;;;;;;7.89;83.96;102656.22;6139133;23;20079;-83
2021/04/04 10:34:53;;;;;;;10.35;2.33;;;;;;;7.65;84.45;102657.19;6164304;23;20424;-83
2021/04/04 10:37:25;;;;;;;8.27;2.72;;;;;;;7.77;84.48;102660.63;6142993;23;20068;-83
2021/04/04 10:39:58;;;;;;;8.88;2.78;;;;;;;7.43;87.67;102653.72;6166914;23;20009;-82
2021/04/04 10:42:24;;;;;;;8.15;1.73;;;;;;;7.53;86.58;102647.59;6170809;23;20004;-83
2021/04/04 10:45:07;;;;;;;7.10;2.28;;;;;;;7.48;87.83;102652.88;6138941;23;20009;-84
2021/04/04 10:47:32;;;;;;;6.97;2.08;;;;;;;7.37;87.41;102644.09;6137440;23;20029;-83
2021/04/04 10:50:03;;;;;;;12.88;2.13;;;;;;;7.04;90.72;102638.94;6161995;23;20005;-83
2021/04/04 10:52:29;;;;;;;12.70;2.15;;;;;;;7.38;89.03;102638.00;6160464;23;20007;-83
2021/04/04 10:54:56;;;;;;;9.02;2.20;;;;;;;6.83;90.84;102642.41;6131443;23;20013;-83
2021/04/04 10:57:21;;;;;;;14.88;3.35;;;;;;;6.98;91.49;102622.28;6131927;23;20001;-83
2021/04/04 10:59:47;;;;;;;10.82;2.70;;;;;;;6.98;90.99;102630.16;6131812;23;20032;-83
2021/04/04 11:02:13;;;;;;;8.57;1.83;;;;;;;7.15;89.02;102627.50;6131853;23;19998;-84
2021/04/04 11:04:40;;;;;;;7.28;2.63;;;;;;;7.27;88.72;102630.09;6131961;23;20044;-83
2021/04/04 11:07:06;;;;;;;8.60;2.70;;;;;;;7.37;89.15;102633.56;6131522;23;20060;-83
2021/04/04 11:09:31;;;;;;;7.57;1.98;;;;;;;7.24;87.55;102616.09;6158805;23;20075;-83
2021/04/04 11:12:00;;;;;;;13.85;3.67;;;;;;;7.57;86.97;102604.56;6160332;23;20464;-83
2021/04/04 11:14:29;;;;;;;15.57;3.45;;;;;;;7.48;87.04;102612.50;6132428;23;20009;-83
2021/04/04 11:17:00;;;;;;;9.05;3.13;;;;;;;7.70;86.20;102606.28;6134955;23;20014;-83
2021/04/04 11:19:27;;;;;;;8.07;2.72;;;;;;;7.41;87.71;102608.16;6158181;23;20005;-83
2021/04/04 11:21:55;;;;;;;7.05;3.45;;;;;;;7.43;86.31;102603.75;6132627;23;20722;-83
2021/04/04 11:24:23;;;;;;;9.18;2.60;;;;;;;7.81;82.17;102585.19;6132425;23;20047;-83
2021/04/04 11:26:51;;;;;;;9.68;3.53;;;;;;;7.68;84.64;102594.91;6161198;23;20079;-83
2021/04/04 11:29:18;;;;;;;7.10;2.78;;;;;;;7.52;83.98;102590.56;6159786;23;20006;-83
2021/04/04 11:31:48;;;;;;;7.82;3.22;;;;;;;7.47;84.49;102590.56;6160750;23;20009;-84
2021/04/04 11:34:38;;;;;;;12.38;3.17;;;;;;;7.60;84.84;102582.66;6135358;23;20002;-83
2021/04/04 11:37:27;;;;;;;11.18;2.78;;;;;;;6.90;86.68;102591.63;6135758;23;20008;-82
2021/04/04 11:40:22;;;;;;;6.90;3.15;;;;;;;7.53;84.73;102573.91;6135827;23;20009;-83
2021/04/04 11:43:10;;;;;;;7.43;2.63;;;;;;;7.49;83.18;102566.91;6136060;23;20012;-83
2021/04/04 11:45:37;;;;;;;5.93;2.40;;;;;;;7.80;81.76;102565.00;6136113;23;19997;-82
2021/04/04 11:48:34;;;;;;;11.02;2.63;;;;;;;7.64;82.87;102566.84;6158868;23;20533;-84